createdAt,value
2018-09-02T00:00:17.064Z,15.7
2018-09-02T00:01:16.508Z,15.7
2018-09-02T00:02:15.625Z,15.7
2018-09-02T00:03:14.948Z,15.7
2018-09-02T00:04:14.670Z,15.7
2018-09-02T00:05:13.278Z,15.7
2018-09-02T00:06:12.998Z,15.7
2018-09-02T00:06:43.646Z,15.7
2018-09-02T00:07:14.191Z,15.7
2018-09-02T00:07:44.629Z,15.7
2018-09-02T00:09:11.132Z,15.7
2018-09-02T00:09:41.595Z,15.7
2018-09-02T00:10:12.098Z,15.7
2018-09-02T00:11:09.317Z,15.7
2018-09-02T00:12:08.754Z,15.7
2018-09-02T00:13:08.087Z,15.7
2018-09-02T00:14:07.312Z,15.7
2018-09-02T00:15:06.649Z,15.7
2018-09-02T00:16:06.080Z,15.7
2018-09-02T00:17:05.530Z,15.7
2018-09-02T00:18:04.355Z,15.7
2018-09-02T00:19:03.482Z,15.7
2018-09-02T00:20:02.812Z,15.7
2018-09-02T00:21:02.554Z,15.7
2018-09-02T00:22:01.887Z,15.7
2018-09-02T00:23:01.219Z,15.7
2018-09-02T00:24:00.168Z,15.7
2018-09-02T00:24:59.513Z,15.7
2018-09-02T00:25:58.845Z,15.7
2018-09-02T00:26:58.069Z,15.7
2018-09-02T00:27:57.296Z,15.7
2018-09-02T00:28:56.519Z,15.7
2018-09-02T00:29:55.747Z,15.7
2018-09-02T00:30:55.183Z,15.7
2018-09-02T00:31:54.091Z,15.7
2018-09-02T00:32:53.647Z,15.7
2018-09-02T00:33:53.411Z,15.7
2018-09-02T00:34:52.229Z,15.7
2018-09-02T00:35:51.448Z,15.7
2018-09-02T00:36:51.282Z,15.7
2018-09-02T00:37:50.609Z,15.7
2018-09-02T00:38:49.339Z,15.7
2018-09-02T00:39:19.880Z,15.7
2018-09-02T00:39:50.527Z,15.7
2018-09-02T00:40:48.361Z,15.7
2018-09-02T00:41:47.284Z,15.7
2018-09-02T00:42:46.616Z,15.7
2018-09-02T00:43:45.962Z,15.7
2018-09-02T00:44:45.199Z,15.7
2018-09-02T00:45:44.646Z,15.7
2018-09-02T00:46:43.887Z,15.7
2018-09-02T00:47:43.122Z,15.7
2018-09-02T00:48:42.346Z,15.7
2018-09-02T00:49:41.467Z,15.7
2018-09-02T00:50:40.688Z,15.7
2018-09-02T00:51:40.308Z,15.7
2018-09-02T00:52:39.747Z,15.7
2018-09-02T00:53:39.182Z,15.7
2018-09-02T00:54:08.997Z,15.7
2018-09-02T00:54:39.543Z,15.7
2018-09-02T00:55:10.294Z,15.7
2018-09-02T00:56:36.797Z,15.7
2018-09-02T00:57:36.125Z,15.7
2018-09-02T00:58:35.477Z,15.7
2018-09-02T00:59:34.590Z,15.7
2018-09-02T01:00:34.027Z,15.7
2018-09-02T01:01:33.466Z,15.7
2018-09-02T01:02:32.297Z,15.7
2018-09-02T01:03:31.617Z,15.7
2018-09-02T01:04:31.052Z,15.7
2018-09-02T01:05:30.372Z,15.7
2018-09-02T01:06:29.818Z,15.7
2018-09-02T01:07:29.040Z,15.7
2018-09-02T01:08:28.473Z,15.7
2018-09-02T01:09:27.306Z,15.6
2018-09-02T01:10:26.733Z,15.6
2018-09-02T01:11:25.844Z,15.6
2018-09-02T01:12:25.066Z,15.6
2018-09-02T01:13:24.920Z,15.6
2018-09-02T01:14:23.667Z,15.6
2018-09-02T01:15:23.107Z,15.6
2018-09-02T01:17:21.834Z,15.6
2018-09-02T01:18:21.286Z,15.6
2018-09-02T01:19:20.726Z,15.6
2018-09-02T01:20:19.442Z,15.6
2018-09-02T01:21:18.674Z,15.6
2018-09-02T01:22:17.799Z,15.6
2018-09-02T01:23:17.308Z,15.6
2018-09-02T01:24:17.146Z,15.6
2018-09-02T01:25:16.078Z,15.6
2018-09-02T01:26:15.406Z,15.6
2018-09-02T01:27:14.641Z,15.6
2018-09-02T01:28:13.659Z,15.6
2018-09-02T01:29:13.309Z,15.6
2018-09-02T01:30:12.748Z,15.6
2018-09-02T01:31:11.687Z,15.6
2018-09-02T01:32:10.806Z,15.6
2018-09-02T01:33:10.587Z,15.6
2018-09-02T01:34:09.917Z,15.6
2018-09-02T01:34:40.563Z,15.6
2018-09-02T01:35:11.203Z,15.6
2018-09-02T01:35:41.948Z,15.6
2018-09-02T01:37:07.441Z,15.6
2018-09-02T01:38:06.881Z,15.6
2018-09-02T01:39:06.214Z,15.6
2018-09-02T01:40:05.536Z,15.6
2018-09-02T01:41:04.865Z,15.6
2018-09-02T01:42:04.088Z,15.6
2018-09-02T01:43:03.428Z,15.6
2018-09-02T01:44:02.759Z,15.6
2018-09-02T01:45:01.879Z,15.6
2018-09-02T01:45:32.530Z,15.6
2018-09-02T01:47:00.546Z,15.6
2018-09-02T01:47:31.082Z,15.6
2018-09-02T01:48:01.621Z,15.7
2018-09-02T01:48:32.366Z,15.7
2018-09-02T01:50:57.758Z,15.7
2018-09-02T01:51:56.879Z,15.7
2018-09-02T01:52:56.212Z,15.7
2018-09-02T01:53:55.328Z,15.7
2018-09-02T01:54:54.646Z,15.7
2018-09-02T01:55:54.067Z,15.7
2018-09-02T01:56:53.303Z,15.7
2018-09-02T01:57:52.739Z,15.7
2018-09-02T01:58:51.857Z,15.7
2018-09-02T01:59:51.193Z,15.7
2018-09-02T02:00:50.527Z,15.7
2018-09-02T02:01:49.750Z,15.7
2018-09-02T02:02:48.973Z,15.7
2018-09-02T02:03:48.300Z,15.7
2018-09-02T02:04:47.635Z,15.7
2018-09-02T02:05:46.745Z,15.7
2018-09-02T02:06:46.080Z,15.7
2018-09-02T02:07:45.519Z,15.7
2018-09-02T02:08:44.852Z,15.7
2018-09-02T02:09:44.074Z,15.7
2018-09-02T02:10:43.407Z,15.7
2018-09-02T02:11:42.420Z,15.7
2018-09-02T02:12:41.848Z,15.7
2018-09-02T02:13:40.856Z,15.7
2018-09-02T02:14:40.689Z,15.7
2018-09-02T02:15:39.613Z,15.7
2018-09-02T02:16:38.838Z,15.7
2018-09-02T02:18:37.349Z,15.7
2018-09-02T02:19:36.968Z,15.7
2018-09-02T02:20:36.202Z,15.7
2018-09-02T02:21:35.538Z,15.7
2018-09-02T02:22:34.864Z,15.6
2018-09-02T02:23:34.310Z,15.7
2018-09-02T02:24:32.921Z,15.7
2018-09-02T02:25:32.644Z,15.7
2018-09-02T02:26:31.976Z,15.6
2018-09-02T02:27:31.419Z,15.6
2018-09-02T02:28:30.633Z,15.6
2018-09-02T02:29:01.178Z,15.6
2018-09-02T02:29:31.821Z,15.6
2018-09-02T02:30:29.141Z,15.6
2018-09-02T02:31:28.364Z,15.6
2018-09-02T02:32:27.697Z,15.6
2018-09-02T02:33:27.026Z,15.6
2018-09-02T02:35:25.238Z,15.6
2018-09-02T02:36:24.676Z,15.6
2018-09-02T02:37:23.695Z,15.6
2018-09-02T02:38:23.637Z,15.5
2018-09-02T02:39:22.853Z,15.5
2018-09-02T02:40:21.786Z,15.5
2018-09-02T02:41:21.113Z,15.5
2018-09-02T02:42:20.443Z,15.5
2018-09-02T02:43:19.660Z,15.5
2018-09-02T02:44:18.972Z,15.5
2018-09-02T02:45:18.317Z,15.5
2018-09-02T02:46:17.756Z,15.5
2018-09-02T02:47:17.065Z,15.5
2018-09-02T02:48:16.292Z,15.5
2018-09-02T02:49:15.502Z,15.5
2018-09-02T02:50:14.496Z,15.5
2018-09-02T02:51:14.105Z,15.5
2018-09-02T02:52:13.429Z,15.5
2018-09-02T02:53:12.753Z,15.5
2018-09-02T02:54:12.182Z,15.4
2018-09-02T02:55:10.788Z,15.4
2018-09-02T02:56:10.391Z,15.4
2018-09-02T02:57:09.605Z,15.4
2018-09-02T02:58:09.035Z,15.4
2018-09-02T02:59:08.261Z,15.4
2018-09-02T03:00:07.694Z,15.3
2018-09-02T03:01:06.724Z,15.3
2018-09-02T03:02:06.064Z,15.3
2018-09-02T03:03:05.294Z,15.3
2018-09-02T03:04:04.628Z,15.3
2018-09-02T03:05:03.958Z,15.3
2018-09-02T03:06:03.070Z,15.3
2018-09-02T03:07:02.467Z,15.3
2018-09-02T03:08:01.988Z,15.3
2018-09-02T03:09:01.328Z,15.3
2018-09-02T03:10:00.539Z,15.3
2018-09-02T03:10:59.753Z,15.3
2018-09-02T03:11:59.182Z,15.3
2018-09-02T03:12:58.501Z,15.3
2018-09-02T03:13:57.731Z,15.3
2018-09-02T03:14:28.264Z,15.3
2018-09-02T03:14:58.789Z,15.3
2018-09-02T03:15:55.993Z,15.3
2018-09-02T03:16:55.323Z,15.3
2018-09-02T03:17:54.757Z,15.3
2018-09-02T03:18:54.176Z,15.4
2018-09-02T03:19:53.506Z,15.4
2018-09-02T03:20:52.432Z,15.4
2018-09-02T03:21:51.323Z,15.4
2018-09-02T03:22:51.161Z,15.4
2018-09-02T03:23:50.516Z,15.4
2018-09-02T03:24:21.258Z,15.4
2018-09-02T03:24:51.502Z,15.4
2018-09-02T03:25:21.819Z,15.4
2018-09-02T03:25:51.942Z,15.4
2018-09-02T03:26:22.467Z,15.4
2018-09-02T03:28:46.632Z,15.4
2018-09-02T03:29:45.958Z,15.4
2018-09-02T03:30:45.190Z,15.4
2018-09-02T03:31:44.643Z,15.5
2018-09-02T03:32:44.083Z,15.5
2018-09-02T03:33:43.413Z,15.5
2018-09-02T03:34:42.836Z,15.5
2018-09-02T03:35:41.748Z,15.5
2018-09-02T03:36:41.075Z,15.5
2018-09-02T03:37:40.516Z,15.5
2018-09-02T03:38:39.743Z,15.5
2018-09-02T03:39:38.950Z,15.5
2018-09-02T03:40:38.158Z,15.5
2018-09-02T03:41:37.619Z,15.6
2018-09-02T03:42:36.936Z,15.6
2018-09-02T03:43:36.155Z,15.6
2018-09-02T03:44:35.263Z,15.6
2018-09-02T03:45:34.603Z,15.6
2018-09-02T03:46:33.824Z,15.6
2018-09-02T03:47:33.251Z,15.6
2018-09-02T03:48:32.690Z,15.6
2018-09-02T03:49:02.618Z,15.6
2018-09-02T03:49:33.254Z,15.6
2018-09-02T03:50:31.168Z,15.6
2018-09-02T03:51:30.595Z,15.6
2018-09-02T03:52:29.307Z,15.6
2018-09-02T03:53:29.021Z,15.6
2018-09-02T03:54:28.341Z,15.6
2018-09-02T03:55:27.455Z,15.6
2018-09-02T03:55:57.769Z,15.6
2018-09-02T03:56:28.394Z,15.6
2018-09-02T03:57:26.309Z,15.6
2018-09-02T03:58:25.127Z,15.6
2018-09-02T03:59:24.459Z,15.6
2018-09-02T04:00:23.571Z,15.6
2018-09-02T04:01:23.005Z,15.6
2018-09-02T04:02:22.326Z,15.6
2018-09-02T04:03:21.644Z,15.6
2018-09-02T04:04:20.954Z,15.6
2018-09-02T04:05:20.274Z,15.6
2018-09-02T04:06:19.706Z,15.6
2018-09-02T04:06:49.839Z,15.6
2018-09-02T04:07:20.364Z,15.6
2018-09-02T04:07:51.016Z,15.6
2018-09-02T04:08:21.659Z,15.6
2018-09-02T04:08:51.973Z,15.6
2018-09-02T04:10:16.459Z,15.6
2018-09-02T04:11:16.301Z,15.6
2018-09-02T04:12:15.140Z,15.6
2018-09-02T04:13:14.355Z,15.6
2018-09-02T04:14:13.683Z,15.6
2018-09-02T04:15:12.681Z,15.6
2018-09-02T04:17:11.903Z,15.6
2018-09-02T04:18:11.118Z,15.6
2018-09-02T04:19:10.347Z,15.6
2018-09-02T04:20:09.779Z,15.6
2018-09-02T04:21:08.888Z,15.6
2018-09-02T04:22:08.150Z,15.6
2018-09-02T04:23:07.581Z,15.6
2018-09-02T04:24:06.896Z,15.6
2018-09-02T04:25:06.010Z,15.6
2018-09-02T04:26:05.324Z,15.6
2018-09-02T04:27:04.741Z,15.5
2018-09-02T04:28:03.957Z,15.5
2018-09-02T04:29:02.851Z,15.6
2018-09-02T04:30:02.249Z,15.6
2018-09-02T04:31:01.356Z,15.6
2018-09-02T04:32:01.065Z,15.6
2018-09-02T04:33:00.494Z,15.6
2018-09-02T04:33:59.422Z,15.6
2018-09-02T04:34:58.753Z,15.6
2018-09-02T04:35:58.108Z,15.6
2018-09-02T04:36:57.537Z,15.6
2018-09-02T04:37:56.913Z,15.6
2018-09-02T04:38:56.254Z,15.6
2018-09-02T04:39:55.081Z,15.6
2018-09-02T04:40:54.508Z,15.6
2018-09-02T04:41:53.617Z,15.6
2018-09-02T04:42:52.931Z,15.6
2018-09-02T04:43:52.038Z,15.5
2018-09-02T04:44:51.650Z,15.6
2018-09-02T04:45:50.753Z,15.5
2018-09-02T04:46:50.645Z,15.5
2018-09-02T04:47:49.277Z,15.5
2018-09-02T04:48:48.494Z,15.5
2018-09-02T04:49:47.989Z,15.5
2018-09-02T04:50:47.007Z,15.5
2018-09-02T04:51:46.941Z,15.5
2018-09-02T04:52:46.054Z,15.5
2018-09-02T04:53:45.479Z,15.5
2018-09-02T04:54:44.340Z,15.5
2018-09-02T04:55:43.560Z,15.5
2018-09-02T04:56:42.901Z,15.5
2018-09-02T04:57:42.234Z,15.5
2018-09-02T04:58:41.660Z,15.5
2018-09-02T04:59:40.767Z,15.5
2018-09-02T05:01:39.597Z,15.5
2018-09-02T05:02:38.929Z,15.5
2018-09-02T05:03:38.160Z,15.5
2018-09-02T05:04:37.312Z,15.5
2018-09-02T05:05:36.446Z,15.5
2018-09-02T05:06:35.887Z,15.5
2018-09-02T05:07:35.204Z,15.4
2018-09-02T05:09:33.715Z,15.4
2018-09-02T05:10:33.054Z,15.4
2018-09-02T05:11:32.585Z,15.4
2018-09-02T05:12:31.403Z,15.4
2018-09-02T05:13:31.125Z,15.3
2018-09-02T05:14:30.339Z,15.3
2018-09-02T05:15:29.656Z,15.3
2018-09-02T05:16:28.980Z,15.3
2018-09-02T05:17:27.582Z,15.3
2018-09-02T05:18:27.505Z,15.3
2018-09-02T05:20:25.603Z,15.2
2018-09-02T05:21:24.920Z,15.2
2018-09-02T05:22:24.746Z,15.2
2018-09-02T05:23:23.237Z,15.2
2018-09-02T05:24:23.061Z,15.1
2018-09-02T05:25:22.397Z,15.1
2018-09-02T05:26:21.606Z,15.1
2018-09-02T05:26:52.025Z,15.1
2018-09-02T05:27:22.545Z,15.1
2018-09-02T05:27:53.072Z,15.1
2018-09-02T05:29:19.359Z,15.1
2018-09-02T05:30:18.358Z,15.1
2018-09-02T05:31:17.973Z,15
2018-09-02T05:32:17.090Z,15
2018-09-02T05:33:16.416Z,15
2018-09-02T05:34:15.854Z,15
2018-09-02T05:35:15.279Z,15
2018-09-02T05:36:13.997Z,15
2018-09-02T05:37:13.711Z,15
2018-09-02T05:38:13.039Z,15
2018-09-02T05:40:11.353Z,14.9
2018-09-02T05:41:10.675Z,14.9
2018-09-02T05:42:10.099Z,14.9
2018-09-02T05:43:09.435Z,14.9
2018-09-02T05:44:08.859Z,14.9
2018-09-02T05:45:07.505Z,14.9
2018-09-02T05:45:38.143Z,14.9
2018-09-02T05:46:08.672Z,14.8
2018-09-02T05:46:39.306Z,14.8
2018-09-02T05:47:09.238Z,14.8
2018-09-02T05:47:39.867Z,14.8
2018-09-02T05:51:03.729Z,14.8
2018-09-02T05:53:01.950Z,14.7
2018-09-02T05:54:01.289Z,14.7
2018-09-02T05:55:00.612Z,14.7
2018-09-02T05:55:59.816Z,14.7
2018-09-02T05:56:59.242Z,14.7
2018-09-02T05:57:58.353Z,14.7
2018-09-02T05:58:57.668Z,14.6
2018-09-02T05:59:56.774Z,14.6
2018-09-02T06:01:55.595Z,14.6
2018-09-02T06:02:55.339Z,14.5
2018-09-02T06:03:54.230Z,14.5
2018-09-02T06:04:53.439Z,14.5
2018-09-02T06:05:52.655Z,14.5
2018-09-02T06:06:51.971Z,14.5
2018-09-02T06:07:51.091Z,14.4
2018-09-02T06:08:50.411Z,14.4
2018-09-02T06:09:49.623Z,14.4
2018-09-02T06:10:48.831Z,14.4
2018-09-02T06:12:47.531Z,14.4
2018-09-02T06:13:46.911Z,14.4
2018-09-02T06:14:46.227Z,14.4
2018-09-02T06:15:45.647Z,14.3
2018-09-02T06:16:44.459Z,14.3
2018-09-02T06:17:43.787Z,14.3
2018-09-02T06:18:42.892Z,14.3
2018-09-02T06:19:42.210Z,14.3
2018-09-02T06:20:41.556Z,14.3
2018-09-02T06:21:40.987Z,14.3
2018-09-02T06:22:40.314Z,14.3
2018-09-02T06:23:39.529Z,14.3
2018-09-02T06:24:38.751Z,14.3
2018-09-02T06:25:37.853Z,14.3
2018-09-02T06:26:37.061Z,14.3
2018-09-02T06:27:36.495Z,14.3
2018-09-02T06:28:35.609Z,14.3
2018-09-02T06:29:34.943Z,14.3
2018-09-02T06:30:34.259Z,14.3
2018-09-02T06:31:33.582Z,14.3
2018-09-02T06:32:33.061Z,14.3
2018-09-02T06:33:32.401Z,14.3
2018-09-02T06:34:31.374Z,14.3
2018-09-02T06:35:31.191Z,14.3
2018-09-02T06:36:30.107Z,14.3
2018-09-02T06:38:28.317Z,14.4
2018-09-02T06:39:27.976Z,14.4
2018-09-02T06:40:26.867Z,14.4
2018-09-02T06:41:26.191Z,14.4
2018-09-02T06:42:25.407Z,14.4
2018-09-02T06:43:24.838Z,14.4
2018-09-02T06:44:24.060Z,14.4
2018-09-02T06:45:23.385Z,14.4
2018-09-02T06:46:22.708Z,14.4
2018-09-02T06:47:22.141Z,14.4
2018-09-02T06:48:20.958Z,14.4
2018-09-02T06:49:20.340Z,14.4
2018-09-02T06:50:19.660Z,14.4
2018-09-02T06:51:19.087Z,14.4
2018-09-02T06:52:17.911Z,14.4
2018-09-02T06:53:17.239Z,14.4
2018-09-02T06:54:16.675Z,14.4
2018-09-02T06:55:15.896Z,14.4
2018-09-02T06:56:15.205Z,14.4
2018-09-02T06:57:14.532Z,14.4
2018-09-02T06:59:13.251Z,14.4
2018-09-02T07:00:12.177Z,14.4
2018-09-02T07:01:11.284Z,14.4
2018-09-02T07:02:10.549Z,14.4
2018-09-02T07:03:09.867Z,14.4
2018-09-02T07:04:09.160Z,14.4
2018-09-02T07:04:39.590Z,14.4
2018-09-02T07:05:10.327Z,14.4
2018-09-02T07:05:40.745Z,14.4
2018-09-02T07:06:11.175Z,14.4
2018-09-02T07:06:41.964Z,14.4
2018-09-02T07:07:12.483Z,14.4
2018-09-02T07:07:42.727Z,14.4
2018-09-02T07:08:13.033Z,14.4
2018-09-02T07:09:05.704Z,14.4
2018-09-02T07:10:04.809Z,14.4
2018-09-02T07:11:04.296Z,14.4
2018-09-02T07:12:03.719Z,14.4
2018-09-02T07:13:02.333Z,14.4
2018-09-02T07:14:02.163Z,14.4
2018-09-02T07:15:01.500Z,14.4
2018-09-02T07:16:00.331Z,14.4
2018-09-02T07:16:59.758Z,14.4
2018-09-02T07:17:59.083Z,14.4
2018-09-02T07:18:58.413Z,14.4
2018-09-02T07:19:57.945Z,14.4
2018-09-02T07:20:56.727Z,14.4
2018-09-02T07:21:56.053Z,14.4
2018-09-02T07:22:55.276Z,14.4
2018-09-02T07:23:25.809Z,14.4
2018-09-02T07:23:56.548Z,14.4
2018-09-02T07:24:26.682Z,14.4
2018-09-02T07:25:52.966Z,14.4
2018-09-02T07:26:52.286Z,14.4
2018-09-02T07:27:51.506Z,14.4
2018-09-02T07:28:50.831Z,14.4
2018-09-02T07:29:50.269Z,14.4
2018-09-02T07:30:49.372Z,14.4
2018-09-02T07:31:48.593Z,14.4
2018-09-02T07:32:47.698Z,14.4
2018-09-02T07:33:46.904Z,14.4
2018-09-02T07:34:46.618Z,14.4
2018-09-02T07:35:45.945Z,14.4
2018-09-02T07:36:45.376Z,14.4
2018-09-02T07:37:44.300Z,14.4
2018-09-02T07:38:43.725Z,14.4
2018-09-02T07:39:42.935Z,14.4
2018-09-02T07:40:42.253Z,14.4
2018-09-02T07:41:41.358Z,14.4
2018-09-02T07:42:40.672Z,14.4
2018-09-02T07:43:40.431Z,14.4
2018-09-02T07:44:39.268Z,14.4
2018-09-02T07:45:38.593Z,14.4
2018-09-02T07:46:37.706Z,14.4
2018-09-02T07:47:36.924Z,14.4
2018-09-02T07:48:36.350Z,14.4
2018-09-02T07:49:35.566Z,14.4
2018-09-02T07:50:34.992Z,14.4
2018-09-02T07:51:34.008Z,14.4
2018-09-02T07:52:33.342Z,14.4
2018-09-02T07:53:32.562Z,14.4
2018-09-02T07:54:32.102Z,14.4
2018-09-02T07:55:30.988Z,14.4
2018-09-02T07:56:30.318Z,14.4
2018-09-02T07:57:29.532Z,14.4
2018-09-02T07:58:28.686Z,14.4
2018-09-02T07:59:27.953Z,14.4
2018-09-02T08:00:27.376Z,14.4
2018-09-02T08:01:26.588Z,14.4
2018-09-02T08:02:25.803Z,14.4
2018-09-02T08:03:24.908Z,14.4
2018-09-02T08:04:24.233Z,14.4
2018-09-02T08:05:23.552Z,14.4
2018-09-02T08:06:22.655Z,14.4
2018-09-02T08:06:53.176Z,14.4
2018-09-02T08:07:23.605Z,14.4
2018-09-02T08:08:21.519Z,14.5
2018-09-02T08:09:20.728Z,14.5
2018-09-02T08:10:19.944Z,14.5
2018-09-02T08:11:19.159Z,14.4
2018-09-02T08:12:18.721Z,14.4
2018-09-02T08:14:17.031Z,14.4
2018-09-02T08:15:16.356Z,14.4
2018-09-02T08:16:15.574Z,14.4
2018-09-02T08:17:14.683Z,14.4
2018-09-02T08:18:13.999Z,14.4
2018-09-02T08:19:13.424Z,14.4
2018-09-02T08:21:11.577Z,14.4
2018-09-02T08:22:11.009Z,14.4
2018-09-02T08:23:10.328Z,14.4
2018-09-02T08:24:09.554Z,14.4
2018-09-02T08:25:08.767Z,14.4
2018-09-02T08:26:08.191Z,14.4
2018-09-02T08:27:07.404Z,14.4
2018-09-02T08:28:06.616Z,14.4
2018-09-02T08:29:06.202Z,14.4
2018-09-02T08:30:05.002Z,14.4
2018-09-02T08:31:04.228Z,14.4
2018-09-02T08:32:03.226Z,14.4
2018-09-02T08:33:03.445Z,14.4
2018-09-02T08:35:01.591Z,14.4
2018-09-02T08:36:00.693Z,14.4
2018-09-02T08:37:00.011Z,14.4
2018-09-02T08:37:59.335Z,14.4
2018-09-02T08:38:59.326Z,14.4
2018-09-02T08:39:57.650Z,14.4
2018-09-02T08:40:57.072Z,14.4
2018-09-02T08:41:56.172Z,14.4
2018-09-02T08:42:55.611Z,14.4
2018-09-02T08:43:25.629Z,14.4
2018-09-02T08:43:56.050Z,14.4
2018-09-02T08:44:27.184Z,14.4
2018-09-02T08:44:57.099Z,14.4
2018-09-02T08:45:53.294Z,14.4
2018-09-02T08:46:52.185Z,14.4
2018-09-02T08:47:51.952Z,14.4
2018-09-02T08:48:51.167Z,14.4
2018-09-02T08:49:50.391Z,14.4
2018-09-02T08:50:49.711Z,14.4
2018-09-02T08:51:49.140Z,14.4
2018-09-02T08:52:48.355Z,14.4
2018-09-02T08:53:47.667Z,14.4
2018-09-02T08:54:46.985Z,14.4
2018-09-02T08:55:17.566Z,14.4
2018-09-02T08:55:47.975Z,14.4
2018-09-02T08:56:45.070Z,14.4
2018-09-02T08:58:43.893Z,14.4
2018-09-02T08:59:43.333Z,14.4
2018-09-02T09:00:42.061Z,14.4
2018-09-02T09:01:41.776Z,14.4
2018-09-02T09:02:40.655Z,14.4
2018-09-02T09:03:39.869Z,14.4
2018-09-02T09:04:39.193Z,14.4
2018-09-02T09:05:38.412Z,14.4
2018-09-02T09:06:37.631Z,14.4
2018-09-02T09:07:37.592Z,14.4
2018-09-02T09:08:37.463Z,14.4
2018-09-02T09:09:35.505Z,14.5
2018-09-02T09:10:34.823Z,14.5
2018-09-02T09:11:34.033Z,14.4
2018-09-02T09:12:33.348Z,14.5
2018-09-02T09:13:32.672Z,14.5
2018-09-02T09:14:31.895Z,14.5
2018-09-02T09:15:31.209Z,14.5
2018-09-02T09:16:30.755Z,14.5
2018-09-02T09:17:29.379Z,14.5
2018-09-02T09:18:29.097Z,14.5
2018-09-02T09:19:28.212Z,14.5
2018-09-02T09:20:27.525Z,14.5
2018-09-02T09:21:27.098Z,14.5
2018-09-02T09:22:26.290Z,14.5
2018-09-02T09:23:25.607Z,14.5
2018-09-02T09:24:24.532Z,14.5
2018-09-02T09:25:23.853Z,14.5
2018-09-02T09:26:23.071Z,14.5
2018-09-02T09:26:53.698Z,14.5
2018-09-02T09:27:24.019Z,14.5
2018-09-02T09:27:54.550Z,14.5
2018-09-02T09:28:24.969Z,14.5
2018-09-02T09:30:19.943Z,14.6
2018-09-02T09:31:19.367Z,14.6
2018-09-02T09:32:19.566Z,14.6
2018-09-02T09:33:17.879Z,14.6
2018-09-02T09:34:17.201Z,14.6
2018-09-02T09:35:16.478Z,14.6
2018-09-02T09:36:15.793Z,14.6
2018-09-02T09:37:15.044Z,14.6
2018-09-02T09:37:45.478Z,14.6
2018-09-02T09:38:16.006Z,14.6
2018-09-02T09:39:13.813Z,14.7
2018-09-02T09:40:12.634Z,14.7
2018-09-02T09:42:11.452Z,14.7
2018-09-02T09:43:10.679Z,14.7
2018-09-02T09:44:09.890Z,14.7
2018-09-02T09:45:09.218Z,14.7
2018-09-02T09:46:09.011Z,14.7
2018-09-02T09:47:07.615Z,14.7
2018-09-02T09:48:06.924Z,14.7
2018-09-02T09:50:05.638Z,14.7
2018-09-02T09:51:04.852Z,14.7
2018-09-02T09:52:04.072Z,14.7
2018-09-02T09:53:03.397Z,14.7
2018-09-02T09:55:01.772Z,14.7
2018-09-02T09:56:00.774Z,14.8
2018-09-02T09:57:00.107Z,14.8
2018-09-02T09:57:59.542Z,14.8
2018-09-02T09:58:58.650Z,14.8
2018-09-02T09:59:57.973Z,14.7
2018-09-02T10:00:57.294Z,14.8
2018-09-02T10:01:56.618Z,14.8
2018-09-02T10:02:55.723Z,14.8
2018-09-02T10:03:55.540Z,14.8
2018-09-02T10:04:54.474Z,14.8
2018-09-02T10:05:53.789Z,14.8
2018-09-02T10:06:53.115Z,14.8
2018-09-02T10:07:52.329Z,14.8
2018-09-02T10:08:51.439Z,14.8
2018-09-02T10:09:50.977Z,14.8
2018-09-02T10:10:50.193Z,14.8
2018-09-02T10:11:50.196Z,14.8
2018-09-02T10:12:48.505Z,14.8
2018-09-02T10:13:47.724Z,14.8
2018-09-02T10:14:47.148Z,14.9
2018-09-02T10:15:46.467Z,14.9
2018-09-02T10:16:45.897Z,14.9
2018-09-02T10:17:45.204Z,14.9
2018-09-02T10:18:44.113Z,14.9
2018-09-02T10:19:43.422Z,14.9
2018-09-02T10:20:42.745Z,15
2018-09-02T10:21:41.863Z,15
2018-09-02T10:22:41.300Z,15
2018-09-02T10:23:40.719Z,15
2018-09-02T10:24:40.036Z,15
2018-09-02T10:25:39.351Z,15
2018-09-02T10:26:38.061Z,15
2018-09-02T10:27:37.881Z,15
2018-09-02T10:28:37.197Z,15
2018-09-02T10:29:36.303Z,15
2018-09-02T10:30:35.734Z,15
2018-09-02T10:31:34.958Z,15
2018-09-02T10:32:34.176Z,15
2018-09-02T10:33:04.908Z,15
2018-09-02T10:33:35.035Z,15
2018-09-02T10:34:32.462Z,15
2018-09-02T10:35:31.899Z,15
2018-09-02T10:36:31.334Z,15
2018-09-02T10:38:29.428Z,15
2018-09-02T10:39:29.166Z,15.1
2018-09-02T10:40:28.100Z,15.1
2018-09-02T10:41:27.669Z,15.1
2018-09-02T10:42:26.561Z,15.1
2018-09-02T10:43:26.179Z,15.1
2018-09-02T10:44:25.409Z,15.1
2018-09-02T10:45:24.828Z,15.1
2018-09-02T10:46:23.325Z,15.1
2018-09-02T10:47:23.103Z,15.1
2018-09-02T10:48:22.429Z,15.1
2018-09-02T10:49:21.651Z,15.1
2018-09-02T10:50:21.133Z,15.1
2018-09-02T10:51:20.452Z,15.2
2018-09-02T10:52:19.381Z,15.2
2018-09-02T10:53:18.716Z,15.2
2018-09-02T10:54:17.929Z,15.2
2018-09-02T10:55:17.148Z,15.2
2018-09-02T10:56:16.624Z,15.2
2018-09-02T10:57:15.844Z,15.2
2018-09-02T10:58:15.061Z,15.2
2018-09-02T10:59:14.381Z,15.2
2018-09-02T11:00:13.491Z,15.2
2018-09-02T11:01:12.913Z,15.2
2018-09-02T11:02:12.022Z,15.3
2018-09-02T11:02:42.537Z,15.3
2018-09-02T11:03:13.171Z,15.3
2018-09-02T11:04:10.988Z,15.3
2018-09-02T11:04:41.512Z,15.3
2018-09-02T11:05:12.047Z,15.3
2018-09-02T11:05:42.477Z,15.3
2018-09-02T11:08:07.987Z,15.3
2018-09-02T11:09:07.204Z,15.3
2018-09-02T11:10:06.314Z,15.4
2018-09-02T11:11:05.526Z,15.3
2018-09-02T11:12:04.956Z,15.3
2018-09-02T11:13:04.386Z,15.3
2018-09-02T11:14:04.307Z,15.3
2018-09-02T11:14:34.272Z,15.3
2018-09-02T11:15:04.709Z,15.3
2018-09-02T11:15:35.262Z,15.3
2018-09-02T11:16:05.997Z,15.4
2018-09-02T11:16:36.252Z,15.4
2018-09-02T11:18:00.515Z,15.4
2018-09-02T11:18:59.883Z,15.4
2018-09-02T11:19:59.097Z,15.4
2018-09-02T11:20:58.426Z,15.4
2018-09-02T11:21:57.850Z,15.4
2018-09-02T11:22:57.190Z,15.5
2018-09-02T11:23:56.526Z,15.5
2018-09-02T11:24:55.643Z,15.5
2018-09-02T11:26:54.247Z,15.6
2018-09-02T11:27:53.464Z,15.5
2018-09-02T11:28:52.675Z,15.6
2018-09-02T11:29:52.003Z,15.6
2018-09-02T11:30:51.326Z,15.6
2018-09-02T11:31:50.743Z,15.7
2018-09-02T11:32:49.954Z,15.7
2018-09-02T11:33:49.390Z,15.7
2018-09-02T11:34:48.711Z,15.8
2018-09-02T11:35:47.537Z,15.8
2018-09-02T11:36:46.750Z,15.8
2018-09-02T11:37:46.588Z,15.8
2018-09-02T11:38:45.295Z,15.8
2018-09-02T11:39:45.120Z,15.8
2018-09-02T11:40:44.120Z,15.8
2018-09-02T11:41:43.436Z,15.8
2018-09-02T11:42:42.663Z,15.8
2018-09-02T11:43:42.099Z,15.8
2018-09-02T11:44:41.528Z,15.8
2018-09-02T11:45:40.847Z,15.9
2018-09-02T11:47:38.957Z,15.9
2018-09-02T11:48:38.685Z,15.9
2018-09-02T11:49:37.899Z,15.9
2018-09-02T11:50:37.318Z,15.9
2018-09-02T11:51:36.138Z,15.9
2018-09-02T11:52:35.367Z,15.9
2018-09-02T11:53:34.795Z,15.9
2018-09-02T11:54:34.010Z,15.9
2018-09-02T11:55:33.115Z,15.9
2018-09-02T11:56:33.050Z,15.9
2018-09-02T11:57:02.858Z,15.9
2018-09-02T11:57:33.669Z,15.9
2018-09-02T11:58:04.130Z,15.9
2018-09-02T11:58:34.765Z,15.9
2018-09-02T11:59:30.458Z,15.8
2018-09-02T12:00:29.675Z,15.8
2018-09-02T12:01:29.381Z,15.9
2018-09-02T12:02:28.586Z,15.8
2018-09-02T12:03:28.032Z,15.9
2018-09-02T12:04:27.347Z,15.9
2018-09-02T12:05:26.561Z,15.9
2018-09-02T12:06:25.981Z,15.9
2018-09-02T12:07:24.797Z,15.9
2018-09-02T12:08:24.659Z,15.9
2018-09-02T12:09:23.471Z,15.8
2018-09-02T12:10:22.823Z,15.8
2018-09-02T12:11:22.255Z,15.8
2018-09-02T12:12:21.357Z,15.8
2018-09-02T12:13:20.387Z,15.8
2018-09-02T12:15:18.990Z,15.8
2018-09-02T12:16:18.930Z,15.8
2018-09-02T12:17:17.747Z,15.8
2018-09-02T12:18:17.167Z,15.8
2018-09-02T12:19:16.387Z,15.8
2018-09-02T12:20:15.716Z,15.8
2018-09-02T12:21:15.137Z,15.8
2018-09-02T12:22:14.344Z,15.8
2018-09-02T12:24:12.833Z,15.8
2018-09-02T12:25:12.060Z,15.8
2018-09-02T12:26:11.273Z,15.8
2018-09-02T12:27:10.710Z,15.8
2018-09-02T12:28:10.032Z,15.8
2018-09-02T12:29:09.256Z,15.8
2018-09-02T12:30:08.587Z,15.8
2018-09-02T12:31:07.817Z,15.8
2018-09-02T12:32:07.135Z,15.8
2018-09-02T12:33:06.463Z,15.9
2018-09-02T12:34:05.815Z,15.9
2018-09-02T12:35:04.925Z,15.9
2018-09-02T12:36:04.132Z,15.9
2018-09-02T12:37:03.861Z,15.9
2018-09-02T12:38:02.873Z,15.9
2018-09-02T12:39:01.986Z,15.9
2018-09-02T12:40:01.713Z,15.9
2018-09-02T12:41:01.045Z,15.9
2018-09-02T12:42:00.043Z,15.9
2018-09-02T12:42:30.455Z,15.9
2018-09-02T12:43:01.099Z,15.9
2018-09-02T12:43:31.744Z,15.9
2018-09-02T12:44:01.880Z,15.9
2018-09-02T12:44:32.522Z,15.9
2018-09-02T12:45:57.402Z,15.9
2018-09-02T12:46:56.504Z,15.9
2018-09-02T12:47:57.585Z,15.9
2018-09-02T12:49:54.275Z,15.9
2018-09-02T12:50:53.595Z,15.9
2018-09-02T12:51:52.717Z,15.9
2018-09-02T12:52:23.248Z,15.9
2018-09-02T12:52:53.996Z,15.9
2018-09-02T12:53:24.014Z,15.9
2018-09-02T12:53:54.658Z,15.9
2018-09-02T12:54:25.083Z,15.9
2018-09-02T12:54:55.713Z,15.9
2018-09-02T12:55:26.211Z,15.9
2018-09-02T12:56:49.692Z,15.8
2018-09-02T12:57:19.819Z,15.8
2018-09-02T12:57:50.453Z,15.9
2018-09-02T12:58:48.167Z,15.9
2018-09-02T12:59:47.599Z,15.9
2018-09-02T13:00:46.927Z,15.9